Sao Sebastiao do Paraiso, Brazil
Current Conditions -  °F | °C
As of 3:00 AM on Saturday 29 Nov 2014 (Local Time) from SBRP Reporting Station
Heavy Rain Heavy Rain  
Wind Chill: 70°   Ceiling: 2000
Heat Index: 70°   Visibility: 0.93mi
Dew Point: 66°   Wind: 6mph
Humidity: 88%   Direction: 90°E
Pressure: 29.97"   Gusts: NA
Location:  20.92°S, 46.99°W
Report Text: SBRP 290500Z 09005KT 1500 +RA SCT004 BKN020 21/19 Q1015
Loading
Personal Weather Stations






























Interactive Weather Map New forecast layout! Learn more

10-Day Weather Forecast

Advertisements
Track Severe Weather on mobile